createdAt,value
2022-08-04T00:05:00.542Z,22.46
2022-08-04T00:10:35.017Z,22.39
2022-08-04T00:16:08.613Z,22.35
2022-08-04T00:21:43.877Z,22.30
2022-08-04T00:27:16.038Z,22.26
2022-08-04T00:32:47.396Z,22.22
2022-08-04T00:38:19.189Z,22.17
2022-08-04T00:44:10.556Z,22.11
2022-08-04T00:49:53.590Z,22.06
2022-08-04T00:55:48.932Z,22.04
2022-08-04T01:01:43.256Z,21.98
2022-08-04T01:07:41.612Z,21.95
2022-08-04T01:13:33.707Z,21.89
2022-08-04T01:19:29.793Z,21.86
2022-08-04T01:25:38.487Z,21.84
2022-08-04T01:31:53.715Z,21.77
2022-08-04T01:37:47.368Z,21.73
2022-08-04T01:43:18.464Z,21.69
2022-08-04T01:48:54.389Z,21.63
2022-08-04T01:54:27.579Z,21.60
2022-08-04T02:00:00.090Z,21.54
2022-08-04T02:06:03.430Z,21.51
2022-08-04T02:11:24.535Z,21.48
2022-08-04T02:16:55.828Z,21.43
2022-08-04T02:22:27.887Z,21.38
2022-08-04T02:28:24.816Z,21.33
2022-08-04T02:33:57.277Z,21.31
2022-08-04T02:39:41.408Z,21.24
2022-08-04T02:45:20.561Z,21.19
2022-08-04T02:50:53.966Z,21.17
2022-08-04T02:56:30.585Z,21.13
2022-08-04T03:02:01.740Z,21.10
2022-08-04T03:07:48.025Z,21.06
2022-08-04T03:13:46.205Z,21.05
2022-08-04T03:19:51.340Z,21.05
2022-08-04T03:25:56.589Z,21.00
2022-08-04T03:31:43.977Z,20.99
2022-08-04T03:37:52.299Z,20.96
2022-08-04T03:43:58.700Z,20.93
2022-08-04T03:50:16.913Z,20.92
2022-08-04T03:56:18.601Z,20.89
2022-08-04T04:02:02.498Z,20.86
2022-08-04T04:07:58.105Z,20.84
2022-08-04T04:14:09.583Z,20.80
2022-08-04T04:20:10.960Z,20.78
2022-08-04T04:25:49.599Z,20.75
2022-08-04T04:32:02.223Z,20.73
2022-08-04T04:38:29.605Z,20.70
2022-08-04T04:44:21.972Z,20.69
2022-08-04T04:50:37.718Z,20.67
2022-08-04T04:56:35.346Z,20.60
2022-08-04T05:02:23.213Z,20.40
2022-08-04T05:08:43.239Z,20.24
2022-08-04T05:14:35.801Z,20.13
2022-08-04T05:20:01.194Z,20.21
2022-08-04T05:25:58.682Z,20.25
2022-08-04T05:31:35.547Z,20.30
2022-08-04T05:37:15.551Z,20.43
2022-08-04T05:42:48.452Z,20.61
2022-08-04T05:48:19.478Z,20.79
2022-08-04T05:53:51.562Z,20.91
2022-08-04T05:59:26.004Z,21.04
2022-08-04T06:04:57.969Z,21.26
2022-08-04T06:10:29.975Z,21.53
2022-08-04T06:16:02.575Z,21.81
2022-08-04T06:21:33.947Z,22.03
2022-08-04T06:27:06.469Z,22.33
2022-08-04T06:32:47.594Z,22.52
2022-08-04T06:38:21.302Z,22.75
2022-08-04T06:43:53.336Z,22.98
2022-08-04T06:49:25.303Z,23.21
2022-08-04T06:54:56.810Z,23.35
2022-08-04T07:00:28.349Z,23.55
2022-08-04T07:06:06.285Z,23.76
2022-08-04T07:11:45.787Z,24.07
2022-08-04T07:17:17.653Z,24.19
2022-08-04T07:22:49.769Z,24.31
2022-08-04T07:28:22.508Z,24.48
2022-08-04T07:34:16.455Z,24.72
2022-08-04T07:39:47.907Z,24.82
2022-08-04T07:45:21.165Z,24.99
2022-08-04T07:50:54.562Z,25.23
2022-08-04T07:56:29.010Z,25.29
2022-08-04T08:02:01.595Z,25.37
2022-08-04T08:07:32.441Z,25.66
2022-08-04T08:13:03.285Z,25.86
2022-08-04T08:18:34.109Z,26.07
2022-08-04T08:24:12.607Z,26.18
2022-08-04T08:29:44.049Z,26.34
2022-08-04T08:35:14.889Z,26.56
2022-08-04T08:40:53.533Z,26.74
2022-08-04T08:46:49.509Z,26.86
2022-08-04T08:53:12.521Z,26.96
2022-08-04T08:58:46.023Z,27.11
2022-08-04T09:04:32.548Z,27.25
2022-08-04T09:10:11.120Z,27.34
2022-08-04T09:15:54.404Z,27.25
2022-08-04T09:21:52.034Z,27.47
2022-08-04T09:27:37.603Z,27.77
2022-08-04T09:33:47.079Z,28.09
2022-08-04T09:39:31.846Z,28.19
2022-08-04T09:45:26.703Z,28.22
2022-08-04T09:51:57.206Z,28.29
2022-08-04T09:57:46.675Z,28.52
2022-08-04T10:03:20.383Z,28.75
2022-08-04T10:09:09.389Z,28.67
2022-08-04T10:14:50.041Z,28.86
2022-08-04T10:20:47.038Z,29.02
2022-08-04T10:26:46.372Z,29.11
2022-08-04T10:33:13.021Z,29.16
2022-08-04T10:38:57.074Z,29.20
2022-08-04T10:44:57.309Z,29.22
2022-08-04T10:50:29.629Z,29.43
2022-08-04T10:56:09.035Z,29.63
2022-08-04T11:02:00.862Z,29.76
2022-08-04T11:07:35.909Z,29.89
2022-08-04T11:13:22.096Z,29.96
2022-08-04T11:19:21.070Z,30.00
2022-08-04T11:25:14.716Z,30.08
2022-08-04T11:31:14.722Z,30.16
2022-08-04T11:36:57.812Z,30.23
2022-08-04T11:42:36.883Z,30.29
2022-08-04T11:48:13.673Z,30.38
2022-08-04T11:53:44.914Z,30.45
2022-08-04T11:59:16.253Z,30.54
2022-08-04T12:04:58.952Z,30.64
2022-08-04T12:10:54.400Z,30.66
2022-08-04T12:16:36.759Z,30.71
2022-08-04T12:22:16.256Z,30.70
2022-08-04T12:28:06.426Z,30.75
2022-08-04T12:34:05.217Z,30.82
2022-08-04T12:40:27.618Z,30.88
2022-08-04T12:45:30.616Z,30.91
2022-08-04T12:51:02.046Z,30.94
2022-08-04T12:56:33.895Z,30.96
2022-08-04T13:02:11.851Z,30.98
2022-08-04T13:07:48.156Z,31.02
2022-08-04T13:13:26.045Z,30.99
2022-08-04T13:18:57.868Z,30.98
2022-08-04T13:24:57.151Z,30.96
2022-08-04T13:30:32.768Z,30.95
2022-08-04T13:36:05.171Z,30.96
2022-08-04T13:41:42.576Z,30.92
2022-08-04T13:47:16.948Z,30.88
2022-08-04T13:52:48.330Z,30.85
2022-08-04T13:58:24.752Z,30.83
2022-08-04T14:04:21.457Z,30.80
2022-08-04T14:10:02.733Z,30.75
2022-08-04T14:16:03.823Z,30.66
2022-08-04T14:21:36.952Z,30.59
2022-08-04T14:27:08.498Z,30.55
2022-08-04T14:33:59.459Z,30.48
2022-08-04T14:38:58.535Z,30.40
2022-08-04T14:44:32.338Z,30.30
2022-08-04T14:50:03.728Z,30.25
2022-08-04T14:55:35.746Z,30.18
2022-08-04T15:01:11.495Z,30.13
2022-08-04T15:06:45.691Z,30.07
2022-08-04T15:12:16.707Z,30.00
2022-08-04T15:17:48.504Z,29.95
2022-08-04T15:23:19.434Z,29.91
2022-08-04T15:28:57.099Z,29.87
2022-08-04T15:34:27.959Z,29.84
2022-08-04T15:40:07.366Z,29.81
2022-08-04T15:46:41.082Z,29.76
2022-08-04T15:51:40.481Z,29.70
2022-08-04T15:57:11.858Z,29.65
2022-08-04T16:02:44.039Z,29.61
2022-08-04T16:08:16.417Z,29.57
2022-08-04T16:14:10.131Z,29.51
2022-08-04T16:19:45.059Z,29.45
2022-08-04T16:25:16.204Z,29.38
2022-08-04T16:30:47.003Z,29.31
2022-08-04T16:36:56.618Z,29.26
2022-08-04T16:42:27.694Z,29.20
2022-08-04T16:48:02.757Z,29.14
2022-08-04T16:54:03.742Z,29.07
2022-08-04T16:59:31.589Z,28.96
2022-08-04T17:05:06.939Z,28.90
2022-08-04T17:10:43.071Z,28.82
2022-08-04T17:22:33.311Z,28.64
2022-08-04T17:33:58.810Z,28.53
2022-08-04T17:39:35.005Z,28.45
2022-08-04T17:51:21.986Z,28.28
2022-08-04T17:57:20.429Z,28.20
2022-08-04T18:02:53.943Z,28.11
2022-08-04T18:08:38.682Z,28.00
2022-08-04T18:14:12.893Z,27.90
2022-08-04T18:19:55.438Z,27.44
2022-08-04T18:25:50.314Z,27.00
2022-08-04T18:31:18.355Z,26.66
2022-08-04T18:36:57.331Z,26.53
2022-08-04T18:42:30.473Z,26.30
2022-08-04T18:48:14.493Z,25.99
2022-08-04T18:53:55.477Z,25.80
2022-08-04T18:59:30.139Z,25.63
2022-08-04T19:05:01.836Z,25.81
2022-08-04T19:10:32.748Z,26.00
2022-08-04T19:16:06.622Z,26.13
2022-08-04T19:22:01.342Z,26.18
2022-08-04T19:27:38.850Z,26.19
2022-08-04T19:33:11.523Z,26.17
2022-08-04T19:38:43.805Z,26.15
2022-08-04T19:44:15.818Z,26.11
2022-08-04T19:50:05.431Z,26.07
2022-08-04T19:55:39.611Z,26.01
2022-08-04T20:01:31.335Z,25.96
2022-08-04T20:07:03.073Z,25.88
2022-08-04T20:12:34.831Z,25.82
2022-08-04T20:18:36.672Z,25.76
2022-08-04T20:24:38.613Z,25.66
2022-08-04T20:29:56.779Z,25.58
2022-08-04T20:35:32.670Z,25.50
2022-08-04T20:41:23.766Z,25.42
2022-08-04T20:46:54.995Z,25.35
2022-08-04T20:52:28.643Z,25.29
2022-08-04T20:58:03.384Z,25.24
2022-08-04T21:03:59.770Z,25.18
2022-08-04T21:09:38.005Z,25.09
2022-08-04T21:15:16.460Z,25.01
2022-08-04T21:20:56.297Z,24.95
2022-08-04T21:26:27.421Z,24.91
2022-08-04T21:31:58.261Z,24.86
2022-08-04T21:37:56.626Z,24.79
2022-08-04T21:43:23.614Z,24.75
2022-08-04T21:48:59.868Z,24.72
2022-08-04T21:54:31.216Z,24.69
2022-08-04T22:00:05.161Z,24.66
2022-08-04T22:05:42.061Z,24.63
2022-08-04T22:11:43.961Z,24.60
2022-08-04T22:17:20.531Z,24.51
2022-08-04T22:22:54.737Z,24.45
2022-08-04T22:28:28.996Z,24.42
2022-08-04T22:34:00.399Z,24.36
2022-08-04T22:39:31.308Z,24.35
2022-08-04T22:45:02.574Z,24.29
2022-08-04T22:50:33.920Z,24.19
2022-08-04T22:56:09.679Z,24.09
2022-08-04T23:02:00.403Z,24.00
2022-08-04T23:07:47.170Z,23.94
2022-08-04T23:13:20.790Z,23.90
2022-08-04T23:18:52.314Z,23.86
2022-08-04T23:24:25.528Z,23.80
2022-08-04T23:30:01.139Z,23.73
2022-08-04T23:35:32.167Z,23.65
2022-08-04T23:41:08.302Z,23.58
2022-08-04T23:46:44.466Z,23.52
2022-08-04T23:52:27.851Z,23.48
2022-08-04T23:58:05.480Z,23.45
